Time;durP1;ratioP1;P1;durP2;ratioP2;P2;SDS_P1;SDS_P2;PMS_P1;PMS_P2;Temp;Humidity;BMP_temperature;BMP_pressure;BME280_temperature;BME280_humidity;BME280_pressure;Samples;Min_cycle;Max_cycle;Signal;HPM_P1;HPM_P2
2022/04/24 00:00:25;;;;;;;19.25;9.10;;;;;;;18.64;44.70;101167.13;5060530;28;20546;-87
2022/04/24 00:02:51;;;;;;;19.85;8.50;;;;;;;18.21;46.09;101179.81;5072942;28;20479;-86
2022/04/24 00:05:17;;;;;;;18.45;7.78;;;;;;;17.81;47.31;101182.66;5072791;28;20025;-86
2022/04/24 00:07:43;;;;;;;19.50;8.02;;;;;;;17.95;46.86;101183.88;5074161;28;20101;-88
2022/04/24 00:10:10;;;;;;;28.08;9.10;;;;;;;18.45;45.45;101179.72;5074164;28;20071;-90
2022/04/24 00:12:36;;;;;;;20.42;8.95;;;;;;;18.71;44.75;101187.50;5069954;28;20055;-91
2022/04/24 00:15:02;;;;;;;19.67;7.65;;;;;;;17.81;46.56;101185.44;5049743;28;20029;-91
2022/04/24 00:17:27;;;;;;;15.95;7.80;;;;;;;18.05;46.22;101187.28;5057048;28;20024;-91
2022/04/24 00:19:53;;;;;;;16.67;9.02;;;;;;;18.11;46.14;101183.13;5051356;28;20116;-91
2022/04/24 00:22:18;;;;;;;17.48;8.52;;;;;;;17.91;46.64;101180.22;5053494;28;20033;-95
2022/04/24 00:24:44;;;;;;;22.85;9.50;;;;;;;18.24;45.65;101185.47;5054711;28;20036;-90
2022/04/24 00:27:10;;;;;;;25.88;8.73;;;;;;;17.67;46.79;101180.25;5054762;28;20052;-90
2022/04/24 00:29:36;;;;;;;22.63;9.90;;;;;;;17.66;46.55;101186.94;5055137;28;20463;-88
2022/04/24 00:32:02;;;;;;;39.35;11.30;;;;;;;17.81;45.70;101182.66;5054876;28;20025;-89
2022/04/24 00:34:28;;;;;;;25.08;12.15;;;;;;;17.38;46.34;101186.88;5054960;28;20090;-89
2022/04/24 00:36:54;;;;;;;25.65;11.07;;;;;;;17.83;45.59;101185.88;5056551;28;20151;-88
2022/04/24 00:39:20;;;;;;;18.52;9.70;;;;;;;17.57;46.17;101187.09;5054593;28;20099;-85
2022/04/24 00:41:50;;;;;;;26.27;9.95;;;;;;;17.41;46.36;101192.53;5055884;28;20076;-85
2022/04/24 00:44:17;;;;;;;16.20;9.27;;;;;;;17.25;47.03;101186.13;5067285;28;20422;-87
2022/04/24 00:46:51;;;;;;;25.10;9.35;;;;;;;17.43;46.55;101184.69;5061539;28;20044;-87
2022/04/24 00:49:16;;;;;;;24.90;10.35;;;;;;;17.39;47.44;101183.00;5064672;28;20047;-86
2022/04/24 00:51:43;;;;;;;28.00;10.05;;;;;;;16.87;49.01;101180.97;5066066;28;20115;-85
2022/04/24 00:54:10;;;;;;;19.23;10.00;;;;;;;17.57;47.18;101181.56;5076308;28;20063;-87
2022/04/24 00:56:38;;;;;;;28.95;12.00;;;;;;;17.59;46.89;101159.91;5074118;28;20024;-87
2022/04/24 00:59:05;;;;;;;15.90;9.98;;;;;;;17.48;46.52;101161.56;5072440;28;20029;-94
2022/04/24 01:01:33;;;;;;;14.85;9.07;;;;;;;17.11;47.43;101160.81;5072008;28;20044;-87
2022/04/24 01:04:01;;;;;;;19.05;11.32;;;;;;;17.10;47.63;101164.75;5071795;28;20056;-85
2022/04/24 01:06:32;;;;;;;23.15;10.65;;;;;;;17.26;47.11;101162.88;5075493;28;20031;-87
2022/04/24 01:09:15;;;;;;;30.85;10.88;;;;;;;17.07;47.01;101165.41;5075899;28;20394;-92
2022/04/24 01:11:42;;;;;;;21.05;10.23;;;;;;;17.13;46.89;101167.59;5075472;28;20028;-90
2022/04/24 01:14:08;;;;;;;27.33;11.73;;;;;;;16.64;48.38;101175.06;5076769;28;20402;-87
2022/04/24 01:16:35;;;;;;;18.00;9.10;;;;;;;16.95;47.64;101171.75;5076295;28;20471;-85
2022/04/24 01:19:01;;;;;;;24.10;11.48;;;;;;;16.69;48.31;101172.09;5069620;28;20032;-88
2022/04/24 01:21:27;;;;;;;21.88;9.32;;;;;;;16.67;48.40;101173.56;5060383;28;20498;-87
2022/04/24 01:23:52;;;;;;;21.40;10.63;;;;;;;16.59;48.43;101169.75;5052556;28;20032;-87
2022/04/24 01:26:18;;;;;;;17.70;8.68;;;;;;;16.52;48.93;101175.84;5059640;28;20021;-86
2022/04/24 01:28:44;;;;;;;20.52;10.15;;;;;;;16.90;47.67;101171.97;5076738;28;20028;-86
2022/04/24 01:31:09;;;;;;;29.70;10.93;;;;;;;16.28;49.19;101178.53;5075444;28;20033;-85
2022/04/24 01:33:35;;;;;;;21.40;9.63;;;;;;;16.61;48.24;101179.28;5075340;28;20070;-90
2022/04/24 01:36:00;;;;;;;23.33;11.48;;;;;;;17.71;45.64;101182.00;5076801;28;20470;-89
2022/04/24 01:38:28;;;;;;;36.03;13.68;;;;;;;17.51;46.23;101187.66;5076546;28;20028;-95
2022/04/24 01:40:54;;;;;;;25.95;12.27;;;;;;;17.20;47.48;101187.16;5076688;28;20069;-88
2022/04/24 01:43:20;;;;;;;30.23;11.50;;;;;;;17.37;46.76;101193.56;5080346;28;20037;-87
2022/04/24 01:45:45;;;;;;;31.30;12.00;;;;;;;17.93;45.36;101185.41;5079355;28;20028;-88
2022/04/24 01:48:11;;;;;;;29.08;12.25;;;;;;;17.97;45.12;101189.03;5082511;28;20049;-88
2022/04/24 01:50:36;;;;;;;29.00;12.25;;;;;;;18.00;45.08;101194.69;5080826;28;20029;-89
2022/04/24 01:53:02;;;;;;;24.65;12.23;;;;;;;18.07;45.42;101191.31;5080111;28;20024;-87
2022/04/24 01:55:30;;;;;;;26.05;12.85;;;;;;;18.09;44.94;101185.44;5080082;28;20033;-96
2022/04/24 01:57:56;;;;;;;28.38;11.70;;;;;;;18.32;44.48;101180.94;5080789;28;20031;-88
2022/04/24 02:00:22;;;;;;;30.25;12.43;;;;;;;18.25;44.82;101189.84;5079666;28;20490;-87
2022/04/24 02:02:47;;;;;;;28.98;11.70;;;;;;;18.49;44.24;101174.25;5084311;28;20064;-88
2022/04/24 02:05:13;;;;;;;32.92;11.82;;;;;;;18.27;44.31;101183.94;5076790;28;20218;-94
2022/04/24 02:07:39;;;;;;;31.80;11.82;;;;;;;17.95;45.34;101194.13;5083534;28;20544;-95
2022/04/24 02:10:05;;;;;;;31.05;12.35;;;;;;;18.25;44.73;101191.81;5084183;28;20032;-88
2022/04/24 02:12:31;;;;;;;27.27;12.20;;;;;;;18.35;44.66;101190.47;5074200;28;20028;-91
2022/04/24 02:14:57;;;;;;;24.95;13.20;;;;;;;18.01;45.03;101198.25;5060492;28;20013;-96
2022/04/24 02:17:23;;;;;;;21.98;10.27;;;;;;;17.64;46.01;101203.06;5061364;28;20600;-91
2022/04/24 02:19:49;;;;;;;24.40;10.55;;;;;;;17.52;46.11;101198.38;5040215;28;20633;-90
2022/04/24 02:22:14;;;;;;;24.50;11.52;;;;;;;17.96;45.26;101207.59;5077712;28;20059;-89
2022/04/24 02:24:40;;;;;;;28.98;11.18;;;;;;;17.74;45.35;101200.66;5079833;28;20505;-91
2022/04/24 02:27:06;;;;;;;20.48;11.00;;;;;;;17.43;46.29;101212.31;5078174;28;20036;-89
2022/04/24 02:29:33;;;;;;;23.92;10.65;;;;;;;17.72;45.38;101202.97;5079769;28;20495;-92
2022/04/24 02:31:59;;;;;;;33.28;12.88;;;;;;;18.15;44.61;101208.91;5078549;28;20025;-90
2022/04/24 02:34:26;;;;;;;34.55;12.43;;;;;;;18.25;44.33;101203.66;5076835;28;20029;-89
2022/04/24 02:36:52;;;;;;;32.97;13.32;;;;;;;18.68;43.26;101202.06;5077585;28;20046;-96
2022/04/24 02:39:17;;;;;;;25.38;11.25;;;;;;;18.39;44.28;101196.91;5070826;28;20032;-90
2022/04/24 02:41:43;;;;;;;37.50;13.27;;;;;;;18.60;43.64;101200.25;5061997;28;20029;-89
2022/04/24 02:44:08;;;;;;;29.48;10.95;;;;;;;18.59;43.68;101201.41;5056286;28;20120;-89
2022/04/24 02:46:34;;;;;;;25.33;11.63;;;;;;;18.27;44.49;101203.31;5052398;28;20059;-87
2022/04/24 02:49:01;;;;;;;26.83;11.98;;;;;;;18.37;44.14;101210.31;5064029;28;20502;-89
2022/04/24 02:51:26;;;;;;;38.70;12.43;;;;;;;18.20;44.82;101211.41;5059892;28;20089;-88
2022/04/24 02:53:52;;;;;;;22.35;10.40;;;;;;;18.24;44.66;101215.91;5075657;28;20028;-87
2022/04/24 02:56:17;;;;;;;22.15;9.73;;;;;;;17.52;46.59;101209.41;5072787;28;20027;-89
2022/04/24 02:58:44;;;;;;;22.75;11.30;;;;;;;17.50;46.67;101205.41;5054674;28;20040;-90
2022/04/24 03:01:11;;;;;;;26.73;11.27;;;;;;;17.30;47.18;101204.38;5050104;28;20086;-90
2022/04/24 03:03:38;;;;;;;25.23;11.25;;;;;;;17.90;45.49;101202.66;5058154;28;20031;-89
2022/04/24 03:06:04;;;;;;;25.98;10.63;;;;;;;17.61;46.13;101212.06;5059885;28;20120;-91
2022/04/24 03:08:30;;;;;;;25.02;11.70;;;;;;;17.46;46.79;101205.31;5064227;28;20026;-90
2022/04/24 03:10:56;;;;;;;20.70;9.48;;;;;;;17.20;47.25;101206.47;5055547;28;20036;-90
2022/04/24 03:13:22;;;;;;;22.52;10.52;;;;;;;17.23;47.50;101202.25;5055605;28;20032;-89
2022/04/24 03:15:47;;;;;;;31.90;11.93;;;;;;;17.74;45.92;101199.84;5055954;28;20037;-89
2022/04/24 03:18:13;;;;;;;27.63;10.07;;;;;;;17.74;45.83;101203.41;5074539;28;20673;-90
2022/04/24 03:20:39;;;;;;;22.45;10.25;;;;;;;17.71;45.84;101198.59;5053236;28;20508;-91
2022/04/24 03:23:04;;;;;;;19.38;9.88;;;;;;;17.38;46.59;101179.44;5054325;28;20055;-89
2022/04/24 03:25:30;;;;;;;21.73;10.25;;;;;;;17.29;47.25;101200.03;5054475;28;20068;-90
2022/04/24 03:27:55;;;;;;;40.03;12.82;;;;;;;17.69;46.25;101206.41;5055883;28;20024;-89
2022/04/24 03:30:21;;;;;;;33.35;11.77;;;;;;;17.52;46.73;101203.09;5052065;28;20033;-83
2022/04/24 03:32:47;;;;;;;22.15;9.98;;;;;;;17.46;46.97;101211.63;5051733;28;20021;-85
2022/04/24 03:35:13;;;;;;;26.95;11.70;;;;;;;17.34;47.14;101210.84;5075847;28;20277;-86
2022/04/24 03:37:39;;;;;;;25.70;11.02;;;;;;;17.53;46.65;101213.78;5055281;28;20035;-86
2022/04/24 03:40:06;;;;;;;23.05;10.48;;;;;;;17.22;47.60;101230.19;5061977;28;20055;-85
2022/04/24 03:42:32;;;;;;;23.58;11.63;;;;;;;17.53;46.79;101213.78;5060204;28;20028;-92
2022/04/24 03:44:58;;;;;;;28.83;8.90;;;;;;;16.43;49.57;101216.50;5057278;28;20030;-85
2022/04/24 03:47:25;;;;;;;17.83;10.50;;;;;;;16.56;49.32;101223.66;5075660;28;20028;-85
2022/04/24 03:49:51;;;;;;;21.92;10.23;;;;;;;17.25;47.32;101210.97;5089056;28;20151;-89
2022/04/24 03:52:16;;;;;;;20.63;10.52;;;;;;;17.11;47.81;101218.81;5056272;28;20497;-86
2022/04/24 03:54:43;;;;;;;25.67;9.38;;;;;;;17.59;46.63;101208.84;5088096;28;20055;-85
2022/04/24 03:57:09;;;;;;;25.55;9.60;;;;;;;16.68;48.66;101211.84;5072324;28;20141;-86
2022/04/24 03:59:35;;;;;;;33.88;10.82;;;;;;;17.04;48.43;101215.81;5062337;28;20021;-88
2022/04/24 04:02:02;;;;;;;28.70;10.70;;;;;;;17.43;47.24;101220.59;5068725;28;20083;-86
2022/04/24 04:04:28;;;;;;;27.88;11.07;;;;;;;17.14;48.44;101218.91;5072145;28;20502;-89
2022/04/24 04:06:54;;;;;;;19.15;10.48;;;;;;;16.92;48.68;101213.84;5072253;28;20123;-89
2022/04/24 04:09:20;;;;;;;26.70;9.85;;;;;;;16.99;48.52;101211.31;5072279;28;20078;-86
2022/04/24 04:11:45;;;;;;;20.02;10.93;;;;;;;16.83;49.00;101211.19;5072557;28;20123;-89
2022/04/24 04:14:11;;;;;;;29.65;11.25;;;;;;;17.26;47.63;101203.50;5049751;28;20037;-88
2022/04/24 04:16:37;;;;;;;39.20;12.93;;;;;;;16.90;48.61;101205.09;5048739;28;20059;-90
2022/04/24 04:19:03;;;;;;;25.02;10.23;;;;;;;16.97;48.11;101207.28;5048355;28;20033;-89
2022/04/24 04:21:30;;;;;;;18.73;8.15;;;;;;;15.94;51.08;101212.75;5053478;28;20028;-88
2022/04/24 04:23:55;;;;;;;26.48;8.98;;;;;;;17.18;47.78;101206.03;5053128;28;20111;-91
2022/04/24 04:26:21;;;;;;;24.83;9.65;;;;;;;17.44;46.99;101213.13;5051032;28;20111;-91
2022/04/24 04:28:47;;;;;;;23.45;9.88;;;;;;;16.68;49.02;101224.81;5051779;28;20360;-90
2022/04/24 04:31:13;;;;;;;26.67;10.20;;;;;;;17.09;48.05;101230.19;5056205;28;20035;-92
2022/04/24 04:33:39;;;;;;;19.95;9.85;;;;;;;17.20;47.65;101234.09;5056141;28;20032;-91
2022/04/24 04:36:06;;;;;;;22.92;9.75;;;;;;;17.44;47.17;101226.94;5057467;28;20026;-90
2022/04/24 04:38:31;;;;;;;25.45;10.30;;;;;;;16.96;48.00;101222.25;5059053;28;20031;-92
2022/04/24 04:40:57;;;;;;;24.50;10.18;;;;;;;17.16;47.91;101216.63;5056978;28;20115;-92
2022/04/24 04:43:26;;;;;;;22.33;9.93;;;;;;;16.82;48.59;101222.59;5057090;28;20122;-89
2022/04/24 04:45:52;;;;;;;20.35;10.05;;;;;;;16.86;48.60;101215.25;5058881;28;20029;-89
2022/04/24 04:48:18;;;;;;;18.20;9.13;;;;;;;16.99;48.34;101216.03;5078227;28;20851;-89
2022/04/24 04:50:43;;;;;;;25.02;10.32;;;;;;;16.82;48.73;101219.81;5057633;28;20079;-89
2022/04/24 04:53:09;;;;;;;28.35;10.88;;;;;;;17.31;47.23;101212.34;5063212;28;20059;-86
2022/04/24 04:55:35;;;;;;;21.15;9.25;;;;;;;17.17;47.60;101226.50;5053356;28;20035;-86
2022/04/24 04:58:00;;;;;;;28.27;11.15;;;;;;;16.51;49.51;101220.31;5054609;28;20648;-86
2022/04/24 05:00:26;;;;;;;25.40;10.90;;;;;;;17.30;47.20;101221.78;5056353;28;20025;-90
2022/04/24 05:02:53;;;;;;;27.65;10.85;;;;;;;17.23;47.64;101226.25;5055526;28;20111;-86
2022/04/24 05:05:18;;;;;;;14.88;9.05;;;;;;;16.60;49.19;101221.81;5056219;28;20060;-86
2022/04/24 05:07:44;;;;;;;18.73;9.57;;;;;;;15.98;50.76;101225.53;5055361;28;20032;-86
2022/04/24 05:10:10;;;;;;;15.70;8.15;;;;;;;16.17;50.24;101215.94;5056211;28;20036;-86
2022/04/24 05:12:36;;;;;;;20.30;9.75;;;;;;;16.33;49.87;101215.00;5055021;28;20033;-94
2022/04/24 05:15:07;;;;;;;26.17;9.82;;;;;;;17.27;47.32;101213.38;5056243;28;20029;-85
2022/04/24 05:17:34;;;;;;;21.40;9.73;;;;;;;16.86;48.34;101218.81;5054929;28;20061;-95
2022/04/24 05:20:01;;;;;;;21.08;9.73;;;;;;;16.41;49.71;101226.28;5054859;28;20087;-87
2022/04/24 05:22:26;;;;;;;19.85;9.40;;;;;;;16.74;48.42;101229.00;5058224;28;20043;-85
2022/04/24 05:24:52;;;;;;;23.35;10.77;;;;;;;16.77;48.27;101229.13;5057914;28;20029;-86
2022/04/24 05:27:19;;;;;;;21.05;9.82;;;;;;;16.56;48.60;101222.88;5054057;28;20047;-86
2022/04/24 05:29:45;;;;;;;16.13;8.50;;;;;;;16.39;49.22;101229.34;5086478;28;20025;-93
2022/04/24 05:32:11;;;;;;;29.17;10.45;;;;;;;16.50;49.01;101227.78;5074622;28;20455;-85
2022/04/24 05:34:36;;;;;;;19.95;9.63;;;;;;;16.64;48.74;101230.25;5074358;28;20123;-85
2022/04/24 05:37:03;;;;;;;22.58;9.68;;;;;;;16.50;49.27;101230.53;5074162;28;20032;-85
2022/04/24 05:39:29;;;;;;;22.25;9.93;;;;;;;16.28;49.85;101226.22;5075351;28;20067;-84
2022/04/24 05:41:54;;;;;;;16.92;9.68;;;;;;;16.61;48.58;101223.44;5075637;28;20052;-86
2022/04/24 05:44:20;;;;;;;28.25;11.48;;;;;;;17.21;47.11;101223.84;5074043;28;20415;-84
2022/04/24 05:46:46;;;;;;;19.02;8.70;;;;;;;16.75;48.54;101236.94;5074088;28;20020;-84
2022/04/24 05:49:11;;;;;;;20.77;8.57;;;;;;;16.76;48.48;101226.72;5073810;28;20057;-85
2022/04/24 05:51:40;;;;;;;33.53;11.20;;;;;;;17.33;46.80;101223.06;5073780;28;20060;-85
2022/04/24 05:54:06;;;;;;;17.15;8.35;;;;;;;17.09;47.44;101234.91;5075450;28;20070;-92
2022/04/24 05:56:31;;;;;;;24.20;9.07;;;;;;;16.96;48.06;101231.34;5075853;28;20039;-92
2022/04/24 05:58:57;;;;;;;22.15;9.95;;;;;;;17.61;46.14;101226.69;5074653;28;20442;-95
2022/04/24 06:01:22;;;;;;;26.00;8.82;;;;;;;16.94;47.50;101228.13;5074483;28;20024;-89
2022/04/24 06:03:48;;;;;;;29.27;9.77;;;;;;;16.93;47.58;101237.56;5074041;28;20039;-88
2022/04/24 06:06:14;;;;;;;35.80;10.52;;;;;;;17.03;47.78;101237.09;5074633;28;20101;-88
2022/04/24 06:08:40;;;;;;;21.25;8.35;;;;;;;16.68;48.27;101238.63;5074137;28;20033;-87
2022/04/24 06:11:06;;;;;;;23.25;7.97;;;;;;;17.16;47.14;101244.22;5074082;28;20025;-86
2022/04/24 06:13:31;;;;;;;26.30;9.32;;;;;;;17.09;47.49;101249.53;5063143;28;20021;-86
2022/04/24 06:16:00;;;;;;;25.10;8.48;;;;;;;16.97;47.52;101243.19;5053386;28;20376;-87
2022/04/24 06:18:27;;;;;;;26.48;8.93;;;;;;;17.22;47.18;101243.97;5060515;28;20114;-88
2022/04/24 06:20:52;;;;;;;15.40;6.93;;;;;;;16.95;47.80;101249.06;5055844;28;20078;-88
2022/04/24 06:23:18;;;;;;;24.17;7.50;;;;;;;16.86;47.86;101251.13;5055037;28;20042;-95
2022/04/24 06:25:44;;;;;;;25.08;7.30;;;;;;;16.76;48.10;101244.06;5056277;28;20052;-87
2022/04/24 06:28:10;;;;;;;28.38;8.32;;;;;;;17.48;46.29;101238.91;5054451;28;20395;-87
2022/04/24 06:30:40;;;;;;;18.55;7.15;;;;;;;17.67;45.75;101249.34;5054174;28;20032;-86
2022/04/24 06:33:12;;;;;;;;;;;;;;;17.67;45.83;101243.81;5054773;28;20068;-86
2022/04/24 06:35:37;;;;;;;18.73;7.13;;;;;;;17.33;46.49;101261.72;5054396;28;19913;-89
2022/04/24 06:38:04;;;;;;;24.17;6.82;;;;;;;16.96;47.30;101247.91;5055167;28;20025;-94
2022/04/24 06:40:31;;;;;;;19.08;6.50;;;;;;;17.06;47.16;101257.69;5053969;28;20044;-91
2022/04/24 06:43:06;;;;;;;17.80;6.28;;;;;;;17.53;45.62;101255.22;5053933;28;20031;-94
2022/04/24 06:45:36;;;;;;;24.05;7.68;;;;;;;17.39;46.00;101252.84;5053181;28;20502;-88
2022/04/24 06:48:11;;;;;;;26.80;7.90;;;;;;;16.89;47.56;101250.41;5054068;28;20450;-93
2022/04/24 06:50:39;;;;;;;25.17;7.70;;;;;;;17.16;46.28;101258.03;5046976;28;20170;-86
2022/04/24 06:53:10;;;;;;;13.68;6.10;;;;;;;17.42;45.73;101257.69;5069690;28;20017;-90
2022/04/24 06:55:38;;;;;;;21.17;7.43;;;;;;;17.78;45.17;101258.81;5052834;28;20483;-91
2022/04/24 06:58:05;;;;;;;23.85;7.15;;;;;;;17.36;46.29;101261.81;5055168;28;20586;-85
2022/04/24 07:00:33;;;;;;;19.00;6.00;;;;;;;17.44;46.09;101257.31;5071260;28;20035;-85
2022/04/24 07:02:58;;;;;;;16.58;6.05;;;;;;;17.47;46.05;101276.78;5072103;28;20482;-84
2022/04/24 07:05:27;;;;;;;11.02;4.65;;;;;;;17.49;45.37;101254.34;5073704;28;20028;-84
2022/04/24 07:07:53;;;;;;;21.70;5.57;;;;;;;17.65;45.53;101271.81;5072831;28;20028;-94
2022/04/24 07:10:19;;;;;;;20.08;5.53;;;;;;;17.48;45.91;101277.59;5072710;28;20158;-85
2022/04/24 07:12:50;;;;;;;17.45;5.85;;;;;;;17.62;45.72;101258.69;5074102;28;20122;-86
2022/04/24 07:15:17;;;;;;;22.90;6.88;;;;;;;17.69;45.51;101263.63;5072286;28;20219;-85
2022/04/24 07:17:47;;;;;;;20.77;6.18;;;;;;;16.92;47.70;101274.56;5072581;28;20542;-85
2022/04/24 07:20:14;;;;;;;21.55;6.68;;;;;;;17.79;45.58;101271.47;5070263;28;20063;-87
2022/04/24 07:22:52;;;;;;;19.63;6.88;;;;;;;17.22;46.59;101277.13;5070094;28;20039;-88
2022/04/24 07:25:23;;;;;;;19.95;5.35;;;;;;;17.58;46.38;101287.34;5089928;28;20029;-96
2022/04/24 07:27:49;;;;;;;20.88;5.75;;;;;;;17.80;45.91;101278.59;5071550;28;20033;-89
2022/04/24 07:30:17;;;;;;;27.33;6.80;;;;;;;17.59;45.81;101287.00;5056103;28;20031;-96
2022/04/24 07:32:53;;;;;;;20.67;4.78;;;;;;;17.42;46.14;101288.06;5071345;28;20028;-85
2022/04/24 07:35:30;;;;;;;16.70;4.68;;;;;;;17.63;45.81;101287.94;5065554;28;20507;-87
2022/04/24 07:37:57;;;;;;;19.63;6.65;;;;;;;17.81;45.39;101287.69;5060875;28;20056;-91
2022/04/24 07:40:26;;;;;;;29.38;6.07;;;;;;;17.54;45.81;101292.78;5055934;28;20032;-89
2022/04/24 07:42:57;;;;;;;15.93;4.60;;;;;;;17.87;45.04;101283.53;5073014;28;20035;-88
2022/04/24 07:45:24;;;;;;;21.63;5.45;;;;;;;18.14;44.89;101284.75;5073793;28;20535;-84
2022/04/24 07:47:51;;;;;;;16.80;4.78;;;;;;;18.01;44.69;101290.31;5073203;28;20021;-85
2022/04/24 07:50:20;;;;;;;18.95;4.78;;;;;;;18.27;44.95;101306.47;5071935;28;20027;-85
2022/04/24 07:52:47;;;;;;;14.10;5.32;;;;;;;17.67;45.41;101312.91;5071894;28;20029;-85
2022/04/24 07:55:15;;;;;;;17.13;4.65;;;;;;;17.88;45.07;101308.06;5057834;28;20029;-86
2022/04/24 07:57:40;;;;;;;18.00;4.07;;;;;;;17.93;45.12;101304.28;5060834;28;20028;-87
2022/04/24 08:00:10;;;;;;;13.85;4.30;;;;;;;17.68;45.09;101328.31;5064494;28;20020;-88
2022/04/24 08:03:03;;;;;;;28.77;6.03;;;;;;;17.90;44.44;101302.19;5070935;28;20028;-95
2022/04/24 08:05:38;;;;;;;23.35;4.53;;;;;;;17.82;44.62;101309.47;5060654;28;20032;-85
2022/04/24 08:08:07;;;;;;;16.70;4.90;;;;;;;17.95;44.56;101315.78;5071650;28;20024;-88
2022/04/24 08:10:35;;;;;;;20.25;4.95;;;;;;;17.90;44.79;101316.00;5066343;28;20047;-85
2022/04/24 08:13:05;;;;;;;22.55;4.35;;;;;;;18.06;44.62;101316.91;5072174;28;20074;-83
2022/04/24 08:15:32;;;;;;;18.38;5.80;;;;;;;18.23;44.53;101318.59;5064447;28;20494;-85
2022/04/24 08:17:58;;;;;;;16.02;4.53;;;;;;;18.15;44.14;101328.66;5065406;28;20036;-86
2022/04/24 08:20:23;;;;;;;16.10;3.92;;;;;;;17.96;44.38;101329.25;5072955;28;20093;-86
2022/04/24 08:22:51;;;;;;;28.58;4.90;;;;;;;18.47;43.50;101334.28;5052769;28;20075;-84
2022/04/24 08:25:20;;;;;;;15.15;5.47;;;;;;;17.78;44.62;101340.94;5067113;28;20115;-89
2022/04/24 08:27:47;;;;;;;17.58;4.70;;;;;;;18.35;43.76;101334.31;5076149;28;20463;-96
2022/04/24 08:30:14;;;;;;;25.05;6.80;;;;;;;17.91;44.59;101323.16;5069587;28;20032;-88
2022/04/24 08:32:42;;;;;;;26.23;5.13;;;;;;;18.70;43.24;101329.84;5071055;28;20036;-87
2022/04/24 08:35:09;;;;;;;24.20;4.88;;;;;;;18.78;43.77;101337.19;5071785;28;20130;-91
2022/04/24 08:37:36;;;;;;;15.60;4.72;;;;;;;18.54;43.61;101340.84;5072742;28;20532;-86
2022/04/24 08:40:04;;;;;;;20.15;4.32;;;;;;;18.85;42.59;101336.56;5071449;28;20024;-86
2022/04/24 08:42:30;;;;;;;19.60;4.53;;;;;;;18.91;42.80;101342.66;5073116;28;20055;-87
2022/04/24 08:44:58;;;;;;;12.68;3.30;;;;;;;18.10;43.93;101328.06;5065912;28;20056;-89
2022/04/24 08:47:25;;;;;;;15.40;4.32;;;;;;;18.48;43.35;101341.44;5071771;28;20070;-85
2022/04/24 08:49:58;;;;;;;18.60;4.10;;;;;;;18.90;42.60;101338.28;5071602;28;20135;-84
2022/04/24 08:52:25;;;;;;;22.83;4.63;;;;;;;18.92;42.27;101352.56;5062089;28;20025;-89
2022/04/24 08:54:52;;;;;;;13.13;4.50;;;;;;;18.84;42.31;101352.38;5061609;28;20088;-86
2022/04/24 08:57:19;;;;;;;15.90;4.45;;;;;;;18.62;42.46;101350.16;5066082;28;20016;-87
2022/04/24 08:59:46;;;;;;;16.38;4.38;;;;;;;18.43;43.06;101363.81;5065617;28;20025;-87
2022/04/24 09:02:11;;;;;;;16.73;4.40;;;;;;;18.57;43.02;101353.16;5068038;28;20021;-90
2022/04/24 09:04:38;;;;;;;18.40;5.97;;;;;;;18.87;42.58;101350.03;5068804;28;20033;-86
2022/04/24 09:07:06;;;;;;;14.02;4.55;;;;;;;18.78;43.43;101362.09;5082661;28;20028;-89
2022/04/24 09:09:43;;;;;;;13.95;4.45;;;;;;;19.01;42.16;101356.78;5071707;28;20025;-90
2022/04/24 09:12:13;;;;;;;15.70;4.20;;;;;;;18.22;43.33;101353.75;5067959;28;20086;-90
2022/04/24 09:14:39;;;;;;;27.05;5.90;;;;;;;18.78;42.80;101356.56;5053864;28;20021;-90
2022/04/24 09:17:07;;;;;;;15.88;3.75;;;;;;;18.83;42.66;101363.81;5072032;28;20025;-90
2022/04/24 09:19:32;;;;;;;22.45;5.13;;;;;;;18.88;42.83;101354.41;5073575;28;20017;-90
2022/04/24 09:22:06;;;;;;;14.05;4.20;;;;;;;19.13;42.15;101364.22;5089219;28;20032;-91
2022/04/24 09:24:54;;;;;;;12.73;3.28;;;;;;;19.46;41.14;101361.09;5059809;28;20029;-90
2022/04/24 09:27:29;;;;;;;13.18;4.25;;;;;;;19.72;41.08;101359.75;5057970;28;20032;-90
2022/04/24 09:29:59;;;;;;;17.92;4.80;;;;;;;19.58;41.80;101374.09;5070870;28;20039;-91
2022/04/24 09:32:28;;;;;;;16.58;5.10;;;;;;;19.74;41.16;101382.38;5075946;28;20025;-91
2022/04/24 09:34:55;;;;;;;16.30;4.13;;;;;;;19.57;42.12;101384.38;5061326;28;20037;-89
2022/04/24 09:37:21;;;;;;;20.88;5.45;;;;;;;19.59;41.72;101384.81;5056013;28;20119;-92
2022/04/24 09:39:48;;;;;;;11.80;4.40;;;;;;;19.70;41.60;101387.03;5055555;28;20040;-90
2022/04/24 09:42:15;;;;;;;22.35;4.35;;;;;;;19.78;40.70;101375.75;5057375;28;20032;-91
2022/04/24 09:44:41;;;;;;;15.02;3.50;;;;;;;19.58;41.17;101383.22;5056274;28;20039;-89
2022/04/24 09:47:07;;;;;;;20.17;4.25;;;;;;;19.58;41.07;101383.22;5066798;28;20028;-90
2022/04/24 09:49:40;;;;;;;18.33;4.60;;;;;;;19.48;41.65;101388.44;5075246;28;20071;-90
2022/04/24 09:52:11;;;;;;;20.35;4.22;;;;;;;20.19;41.19;101395.72;5067130;28;20028;-91
2022/04/24 09:54:45;;;;;;;19.15;5.28;;;;;;;19.52;41.72;101401.22;5073686;28;20028;-92
2022/04/24 09:57:12;;;;;;;14.82;4.40;;;;;;;19.75;41.49;101398.66;5068974;28;20029;-90
2022/04/24 09:59:41;;;;;;;29.35;5.75;;;;;;;20.42;40.61;101396.63;5069208;28;20025;-90
2022/04/24 10:02:08;;;;;;;15.05;4.03;;;;;;;20.59;40.55;101391.84;5075432;28;20110;-90
2022/04/24 10:04:35;;;;;;;15.20;3.88;;;;;;;20.66;39.79;101395.56;5075380;28;20068;-90
2022/04/24 10:07:10;;;;;;;17.70;6.78;;;;;;;20.41;40.26;101392.25;5075618;28;20024;-90
2022/04/24 10:09:38;;;;;;;18.83;4.50;;;;;;;19.94;40.81;101397.91;5075420;28;20036;-90
2022/04/24 10:12:08;;;;;;;17.83;4.45;;;;;;;19.89;40.95;101409.28;5075452;28;20039;-92
2022/04/24 10:15:00;;;;;;;17.52;5.15;;;;;;;19.91;41.43;101406.97;5091961;28;20386;-91
2022/04/24 10:18:01;;;;;;;15.02;4.53;;;;;;;19.55;41.88;101413.56;5068527;28;20039;-91
2022/04/24 10:20:45;;;;;;;19.65;3.97;;;;;;;19.92;41.53;101419.66;5072041;28;20499;-91
2022/04/24 10:23:11;;;;;;;17.83;4.80;;;;;;;20.77;39.92;101409.66;5074796;28;20028;-91
2022/04/24 10:25:42;;;;;;;21.10;5.68;;;;;;;21.11;39.60;101410.72;5074813;28;20060;-91
2022/04/24 10:28:16;;;;;;;19.55;4.45;;;;;;;20.32;40.17;101407.47;5074605;28;20085;-90
2022/04/24 10:30:44;;;;;;;20.02;5.35;;;;;;;21.14;39.56;101420.28;5074451;28;20394;-89
2022/04/24 10:33:24;;;;;;;20.10;4.68;;;;;;;21.38;39.13;101408.03;5075187;28;20032;-89
2022/04/24 10:35:54;;;;;;;;;;;;;;;21.00;39.94;101418.03;5075496;28;20074;-91
2022/04/24 10:38:21;;;;;;;;;;;;;;;20.90;39.28;101430.56;5074257;28;19913;-91
2022/04/24 10:41:13;;;;;;;15.38;3.75;;;;;;;20.63;39.49;101423.22;5075086;28;19908;-92
2022/04/24 10:43:56;;;;;;;15.93;4.65;;;;;;;21.33;39.25;101428.63;5074913;28;20035;-92
2022/04/24 10:46:30;;;;;;;24.65;5.85;;;;;;;21.66;38.56;101427.19;5075013;28;20424;-91
2022/04/24 10:49:10;;;;;;;13.70;3.83;;;;;;;21.03;39.58;101426.44;5075499;28;20033;-89
2022/04/24 10:51:37;;;;;;;14.73;4.38;;;;;;;20.23;40.44;101425.13;5074724;28;20024;-92
2022/04/24 10:54:13;;;;;;;14.90;3.47;;;;;;;20.36;40.01;101433.34;5091530;28;20027;-91
2022/04/24 10:56:42;;;;;;;15.02;4.72;;;;;;;21.03;39.83;101436.75;5074233;28;20029;-91
2022/04/24 10:59:19;;;;;;;16.57;4.83;;;;;;;20.76;40.59;101438.59;5063830;28;20135;-90
2022/04/24 11:01:53;;;;;;;13.70;4.35;;;;;;;21.16;39.52;101420.72;5054668;28;20512;-90
2022/04/24 11:04:19;;;;;;;13.70;3.45;;;;;;;;;;5056196;28;20033;-91
2022/04/24 11:07:18;;;;;;;12.50;3.35;;;;;;;20.72;40.21;101437.72;5054179;28;20029;-90
2022/04/24 11:09:44;;;;;;;17.98;5.00;;;;;;;21.01;40.21;101428.00;5054374;28;20041;-89
2022/04/24 11:12:11;;;;;;;20.42;5.22;;;;;;;21.23;39.88;101441.09;5055364;28;20037;-93
2022/04/24 11:14:37;;;;;;;15.93;3.72;;;;;;;20.90;40.07;101433.31;5053871;28;20036;-90
2022/04/24 11:17:05;;;;;;;17.98;3.85;;;;;;;20.38;40.40;101434.59;5054788;28;20017;-93
2022/04/24 11:19:36;;;;;;;10.35;3.47;;;;;;;20.66;39.94;101433.63;5055189;28;20033;-90